La Ribera, Costa Rica

11:37 PM CST on June 27, 2017 (GMT -0600)
Santa Lucia | | Change Station

Elev 3937 ft 10.02 °N, 84.12 °W | Updated 0 second ago

Scattered Clouds
Scattered Clouds
65.1 °F
Feels Like 65.1 °F
N
0.7
Wind Variable Wind from East
Gusts 2.5 mph

Today
High -- | Low -- °F
--% Chance of Precip.
Yesterday
High -- | Low -- °F
Precip. -- in
Pressure 30.04 in
Visibility 6.2 miles
Clouds Few 500 ft
Scattered Clouds 1000 ft
Dew Point 65 °F
Humidity 99%
Rainfall in
Snow Depth Not available.
5:18 AM 6:01 PM
Waxing Crescent, 22% visible
METAR MROC 280500Z VRB02KT 9999 FEW005 SCT010 21/21 A3004 NOSIG
Pressure 30.04 in
Visibility 6.2 miles
Clouds Few 500 ft
Scattered Clouds 1000 ft
Dew Point 65 °F
Humidity 99%
Rainfall in
Snow Depth Not available.
5:18 AM 6:01 PM
Waxing Crescent, 22% visible
METAR MROC 280500Z VRB02KT 9999 FEW005 SCT010 21/21 A3004 NOSIG

Get Severe Weather Alerts

Thanks for signing up!

Be on the lookout for a verification email in your inbox.

You'll start receiving the daily forecast at 6 AM.

×

10-Day Weather Forecast

No radar image for this location.
×

Almanac

Astronomy

Jun. 27, 2017 Rise Set
Actual Time
Civil Twilight
Nautical Twilight
Astronomical Twilight
Moon
Length of Visible Light
Length of Day
Tomorrow will be .
, % of the Moon is Illuminated

Today's Extremes

Country Highs Country Lows

Community

WunderPhotos

Category 6

Welcome to Category 6. This is the collective home for Weather Underground's featured writeups by Dr. Jeff Masters (right), Bob Henson (left), Chris Burt, and other regular contributors.

Nearby

Air Quality

  Air Quality AQ Index Pollutant
Not available.

Snow Depth

Station Depth Elevation

Earthquake Activity

City Distance Mag. Time & Date
Minimum magnitude displayed is 2.5.

Coastal Water Temperatures

Place Temperature

Stations

Nearby Weather Stations

Station Location Temp. Windchill Dew Point Humidity Wind Precip. Elev Updated Type